Time;durP1;ratioP1;P1;durP2;ratioP2;P2;SDS_P1;SDS_P2;PMS_P1;PMS_P2;Temp;Humidity;BMP_temperature;BMP_pressure;BME280_temperature;BME280_humidity;BME280_pressure;Samples;Min_cycle;Max_cycle;Signal;HPM_P1;HPM_P2
2020/12/10 00:00:46;;;;;;;23.02;9.30;;;;;;;-4.37;74.28;100216.20;1813687;79;21362;-72
2020/12/10 00:03:14;;;;;;;25.17;9.48;;;;;;;-4.40;73.99;100225.98;1813534;79;20967;-72
2020/12/10 00:05:42;;;;;;;23.30;9.55;;;;;;;-4.45;74.18;100215.87;1811090;77;21011;-72
2020/12/10 00:08:10;;;;;;;23.40;9.10;;;;;;;-4.47;74.66;100217.09;1813668;79;21016;-72
2020/12/10 00:10:38;;;;;;;25.57;9.10;;;;;;;-4.48;74.21;100219.47;1813643;79;20994;-72
2020/12/10 00:13:06;;;;;;;25.77;9.20;;;;;;;-4.52;73.77;100211.52;1813610;78;21187;-78
2020/12/10 00:15:34;;;;;;;26.00;10.35;;;;;;;-4.53;75.28;100216.56;1813600;79;20924;-74
2020/12/10 00:18:02;;;;;;;23.62;9.70;;;;;;;-4.57;74.27;100217.99;1813651;79;21530;-75
2020/12/10 00:20:30;;;;;;;19.45;9.08;;;;;;;-4.62;73.78;100213.23;1813650;79;21577;-75
2020/12/10 00:22:59;;;;;;;24.18;9.23;;;;;;;-4.64;74.96;100215.83;1813775;79;21550;-74
2020/12/10 00:25:26;;;;;;;27.65;11.12;;;;;;;-4.69;74.06;100210.56;1813613;79;21355;-72
2020/12/10 00:27:54;;;;;;;21.95;8.53;;;;;;;-4.69;74.32;100203.03;1813538;79;20932;-72
2020/12/10 00:30:22;;;;;;;31.17;10.65;;;;;;;-4.71;74.83;100197.88;1813564;79;20917;-72
2020/12/10 00:32:52;;;;;;;24.07;8.93;;;;;;;-4.71;74.47;100196.55;1813392;79;20948;-72
2020/12/10 00:35:20;;;;;;;30.02;10.95;;;;;;;-4.73;74.15;100201.78;1813777;79;21539;-69
2020/12/10 00:37:48;;;;;;;26.23;9.98;;;;;;;-4.75;74.73;100192.61;1813678;79;21381;-73
2020/12/10 00:40:16;;;;;;;31.35;10.50;;;;;;;-4.73;75.00;100185.71;1813570;79;20948;-73
2020/12/10 00:42:44;;;;;;;23.07;8.28;;;;;;;-4.73;74.53;100179.02;1813612;79;20924;-76
2020/12/10 00:45:12;;;;;;;27.75;9.40;;;;;;;-4.76;74.42;100179.41;1813596;79;21050;-75
2020/12/10 00:47:39;;;;;;;31.77;9.40;;;;;;;-4.78;74.92;100190.33;1813661;79;20928;-76
2020/12/10 00:50:08;;;;;;;28.70;9.63;;;;;;;-4.79;74.77;100199.39;1805646;79;21574;-75
2020/12/10 00:52:37;;;;;;;25.15;9.38;;;;;;;-4.79;74.35;100201.25;1779900;80;21003;-76
2020/12/10 00:55:07;;;;;;;24.23;9.20;;;;;;;-4.83;74.49;100198.14;1791880;79;21011;-75
2020/12/10 00:57:34;;;;;;;24.00;9.35;;;;;;;-4.83;74.53;100194.63;1786384;79;21598;-75
2020/12/10 01:00:07;;;;;;;22.22;8.43;;;;;;;-4.85;74.41;100195.34;1813652;79;20932;-75
2020/12/10 01:02:34;;;;;;;26.30;10.38;;;;;;;-4.91;74.11;100206.34;1813872;79;22227;-75
2020/12/10 01:05:04;;;;;;;30.57;10.18;;;;;;;-4.95;74.00;100207.77;1813538;79;20959;-76
2020/12/10 01:07:31;;;;;;;28.62;9.50;;;;;;;-4.99;74.53;100206.52;1813617;79;20896;-76
2020/12/10 01:10:00;;;;;;;25.35;9.30;;;;;;;-5.02;74.77;100210.92;1813507;79;20992;-76
2020/12/10 01:12:27;;;;;;;21.07;8.88;;;;;;;-5.05;74.75;100208.64;1813733;79;21578;-76
2020/12/10 01:14:55;;;;;;;23.98;9.70;;;;;;;-5.08;74.91;100211.72;1813619;79;21429;-75
2020/12/10 01:17:23;;;;;;;24.60;9.00;;;;;;;-5.11;76.00;100206.24;1813566;79;21498;-75
2020/12/10 01:19:52;;;;;;;21.30;9.68;;;;;;;-5.11;75.09;100223.64;1813605;79;20940;-75
2020/12/10 01:22:19;;;;;;;29.87;10.15;;;;;;;-5.13;74.94;100214.98;1813545;79;20959;-76
2020/12/10 01:24:48;;;;;;;23.80;8.90;;;;;;;-5.17;74.90;100210.22;1813633;79;21532;-76
2020/12/10 01:27:17;;;;;;;25.72;9.93;;;;;;;-5.20;75.13;100207.97;1813692;79;22251;-76
2020/12/10 01:29:44;;;;;;;27.60;9.20;;;;;;;-5.21;75.48;100204.98;1761932;79;21494;-76
2020/12/10 01:32:13;;;;;;;23.22;9.45;;;;;;;-5.23;75.54;100199.83;1813526;77;21466;-76
2020/12/10 01:34:40;;;;;;;31.68;9.55;;;;;;;-5.26;75.43;100207.42;1813577;79;20983;-76
2020/12/10 01:37:08;;;;;;;22.55;8.25;;;;;;;-5.32;75.10;100195.65;1813676;79;21039;-76
2020/12/10 01:39:38;;;;;;;21.85;9.00;;;;;;;-5.38;75.38;100195.09;1813678;79;21191;-76
2020/12/10 01:42:05;;;;;;;28.55;8.23;;;;;;;-5.42;76.12;100196.51;1813573;79;20902;-77
2020/12/10 01:44:33;;;;;;;23.98;9.45;;;;;;;-5.47;75.48;100192.25;1813610;79;20940;-77
2020/12/10 01:47:01;;;;;;;24.92;8.68;;;;;;;-5.53;75.38;100180.48;1813596;79;21045;-77
2020/12/10 01:49:28;;;;;;;22.60;8.43;;;;;;;-5.56;75.39;100183.55;1813588;79;20972;-77
2020/12/10 01:51:56;;;;;;;22.77;8.85;;;;;;;-5.61;75.60;100179.30;1813411;79;21185;-77
2020/12/10 01:54:24;;;;;;;26.12;8.65;;;;;;;-5.62;75.81;100172.81;1813541;79;20943;-77
2020/12/10 01:56:55;;;;;;;22.98;7.67;;;;;;;-5.63;75.68;100177.84;1813602;79;20932;-78
2020/12/10 01:59:22;;;;;;;21.23;8.75;;;;;;;-5.61;76.14;100183.31;1813596;79;20935;-77
2020/12/10 02:01:50;;;;;;;23.67;8.70;;;;;;;-5.64;75.66;100177.02;1813532;79;20964;-79
2020/12/10 02:04:30;;;;;;;20.90;8.03;;;;;;;-5.69;75.69;100184.80;1813544;79;21344;-77
2020/12/10 02:06:58;;;;;;;20.72;8.05;;;;;;;-5.71;75.81;100183.66;1813254;79;21011;-75
2020/12/10 02:09:26;;;;;;;23.50;8.73;;;;;;;-5.72;75.87;100173.15;1813568;79;21584;-76
2020/12/10 02:11:54;;;;;;;23.38;8.85;;;;;;;-5.70;76.49;100170.59;1813505;79;20896;-77
2020/12/10 02:14:22;;;;;;;26.00;8.90;;;;;;;-5.68;75.98;100173.91;1813675;79;21484;-77
2020/12/10 02:16:55;;;;;;;21.27;7.78;;;;;;;-5.72;75.99;100167.30;1813627;79;22211;-77
2020/12/10 02:19:23;;;;;;;21.87;7.92;;;;;;;-5.75;76.23;100173.03;1813560;79;20932;-77
2020/12/10 02:21:51;;;;;;;36.30;9.15;;;;;;;-5.73;76.59;100166.97;1813549;79;21075;-77
2020/12/10 02:24:18;;;;;;;23.02;8.68;;;;;;;-5.73;76.32;100169.65;1813540;78;20955;-77
2020/12/10 02:26:46;;;;;;;22.82;8.05;;;;;;;-5.75;76.49;100156.98;1813575;79;21146;-78
2020/12/10 02:29:16;;;;;;;22.10;8.93;;;;;;;-5.77;76.50;100153.67;1813544;79;21195;-76
2020/12/10 02:31:43;;;;;;;26.40;8.83;;;;;;;-5.78;76.49;100156.06;1813431;77;20956;-76
2020/12/10 02:34:11;;;;;;;23.62;9.95;;;;;;;-5.81;76.73;100154.29;1813536;79;20885;-73
2020/12/10 02:36:39;;;;;;;25.43;8.53;;;;;;;-5.84;76.87;100145.32;1813553;79;21145;-73
2020/12/10 02:39:07;;;;;;;25.85;9.13;;;;;;;-5.86;77.35;100142.02;1813733;79;21582;-73
2020/12/10 02:41:36;;;;;;;20.15;7.95;;;;;;;-5.83;77.60;100139.78;1813781;79;22220;-73
2020/12/10 02:44:04;;;;;;;19.05;8.63;;;;;;;-5.79;77.99;100130.86;1813673;79;20888;-73
2020/12/10 02:46:32;;;;;;;23.12;9.65;;;;;;;-5.77;78.02;100122.92;1813715;79;21067;-75
2020/12/10 02:48:59;;;;;;;29.42;10.18;;;;;;;-5.74;77.84;100123.05;1814055;79;20991;-75
2020/12/10 02:51:27;;;;;;;25.12;9.78;;;;;;;-5.72;78.51;100123.67;1811892;79;20991;-75
2020/12/10 02:53:55;;;;;;;26.52;9.08;;;;;;;-5.72;78.27;100112.98;1808049;79;22027;-74
2020/12/10 02:56:23;;;;;;;33.73;9.38;;;;;;;-5.72;78.09;100100.94;1808021;79;21488;-74
2020/12/10 02:58:50;;;;;;;28.20;9.48;;;;;;;-5.72;78.12;100099.60;1807984;79;20979;-75
2020/12/10 03:01:18;;;;;;;24.32;9.70;;;;;;;-5.71;78.43;100105.27;1774692;79;21126;-75
2020/12/10 03:03:45;;;;;;;20.70;8.85;;;;;;;-5.72;78.62;100108.97;1774619;80;21483;-75
2020/12/10 03:06:13;;;;;;;27.45;10.35;;;;;;;-5.71;78.76;100103.42;1774520;80;21197;-75
2020/12/10 03:08:40;;;;;;;23.75;9.00;;;;;;;-5.67;79.82;100102.52;1774398;80;21020;-75
2020/12/10 03:11:08;;;;;;;23.15;9.45;;;;;;;-5.63;79.13;100099.77;1774431;80;20975;-76
2020/12/10 03:13:35;;;;;;;21.05;9.13;;;;;;;-5.63;78.91;100095.75;1774477;80;21055;-76
2020/12/10 03:16:03;;;;;;;20.17;8.90;;;;;;;-5.63;79.44;100098.42;1774645;80;21056;-77
2020/12/10 03:18:31;;;;;;;30.95;10.18;;;;;;;-5.62;79.26;100097.40;1774569;80;22266;-76
2020/12/10 03:20:58;;;;;;;29.65;9.58;;;;;;;-5.62;79.40;100093.39;1774543;80;20992;-75
2020/12/10 03:23:26;;;;;;;23.55;9.70;;;;;;;-5.61;80.46;100088.35;1774583;80;21605;-74
2020/12/10 03:25:54;;;;;;;27.85;10.40;;;;;;;-5.57;80.08;100090.95;1774556;80;21045;-74
2020/12/10 03:28:21;;;;;;;23.80;9.98;;;;;;;-5.55;80.06;100086.23;1774506;80;21467;-75
2020/12/10 03:30:49;;;;;;;21.25;9.70;;;;;;;-5.50;80.99;100084.30;1774384;80;21324;-73
2020/12/10 03:33:17;;;;;;;25.88;10.00;;;;;;;-5.47;80.58;100068.67;1774412;80;20996;-73
2020/12/10 03:35:44;;;;;;;27.70;11.70;;;;;;;-5.43;80.57;100067.76;1774426;80;20929;-73
2020/12/10 03:38:12;;;;;;;24.90;10.45;;;;;;;-5.40;81.15;100069.52;1774438;80;21490;-73
2020/12/10 03:40:39;;;;;;;26.20;10.58;;;;;;;-5.37;80.86;100062.95;1774496;80;21570;-74
2020/12/10 03:43:07;;;;;;;22.10;10.35;;;;;;;-5.36;80.89;100068.10;1774471;80;21145;-74
2020/12/10 03:45:34;;;;;;;25.37;9.63;;;;;;;-5.34;81.03;100077.27;1774497;80;21085;-73
2020/12/10 03:48:01;;;;;;;28.10;11.28;;;;;;;-5.30;81.21;100072.34;1774540;80;21467;-74
2020/12/10 03:50:29;;;;;;;24.20;10.05;;;;;;;-5.29;80.93;100074.82;1785266;79;20944;-73
2020/12/10 03:52:57;;;;;;;30.35;10.25;;;;;;;-5.28;81.06;100071.63;1782666;78;21027;-73
2020/12/10 03:55:25;;;;;;;28.38;11.68;;;;;;;-5.26;81.28;100062.38;1786174;78;21802;-74
2020/12/10 03:57:53;;;;;;;32.23;11.93;;;;;;;-5.24;81.26;100068.36;1787122;79;20917;-75
2020/12/10 04:00:21;;;;;;;26.93;11.18;;;;;;;-5.24;81.41;100073.70;1774433;80;21004;-74
2020/12/10 04:02:49;;;;;;;25.17;10.30;;;;;;;-5.21;81.85;100065.79;1774441;80;21016;-75
2020/12/10 04:05:17;;;;;;;26.20;9.98;;;;;;;-5.20;81.68;100063.42;1774453;80;20980;-74
2020/12/10 04:07:44;;;;;;;25.65;10.75;;;;;;;-5.19;81.89;100074.41;1774453;80;21366;-73
2020/12/10 04:10:12;;;;;;;24.45;10.45;;;;;;;-5.19;81.68;100067.72;1780496;78;21071;-74
2020/12/10 04:12:40;;;;;;;27.87;10.95;;;;;;;-5.21;81.74;100059.92;1774500;80;21567;-75
2020/12/10 04:15:07;;;;;;;31.70;11.75;;;;;;;-5.20;82.22;100054.88;1774405;80;21004;-74
2020/12/10 04:17:35;;;;;;;26.23;9.55;;;;;;;-5.19;81.95;100051.15;1774532;80;21114;-75
2020/12/10 04:20:03;;;;;;;29.65;11.30;;;;;;;-5.18;81.94;100050.13;1774476;80;21796;-77
2020/12/10 04:22:31;;;;;;;29.00;11.75;;;;;;;-5.17;81.81;100050.95;1794223;78;20940;-78
2020/12/10 04:24:59;;;;;;;31.17;10.90;;;;;;;-5.16;82.19;100052.09;1774502;80;21000;-78
2020/12/10 04:27:26;;;;;;;30.02;12.00;;;;;;;-5.15;82.20;100043.54;1774391;80;21141;-76
2020/12/10 04:29:54;;;;;;;28.90;12.03;;;;;;;-5.14;82.19;100046.02;1774417;80;20921;-76
2020/12/10 04:32:22;;;;;;;30.30;11.95;;;;;;;-5.13;82.38;100045.50;1778599;78;21380;-77
2020/12/10 04:34:50;;;;;;;36.08;12.40;;;;;;;-5.11;82.78;100046.12;1790990;79;21133;-76
2020/12/10 04:37:17;;;;;;;32.90;11.85;;;;;;;-5.09;82.55;100038.72;1781696;79;21125;-76
2020/12/10 04:39:46;;;;;;;36.80;12.13;;;;;;;-5.09;82.68;100038.72;1774035;80;21059;-77
2020/12/10 04:42:15;;;;;;;31.15;12.30;;;;;;;-5.08;83.04;100031.83;1777390;79;21055;-76
2020/12/10 04:44:44;;;;;;;28.77;11.30;;;;;;;-5.04;82.96;100030.91;1807678;79;21350;-75
2020/12/10 04:47:11;;;;;;;29.70;10.35;;;;;;;-5.04;82.98;100029.05;1778389;79;21558;-78
2020/12/10 04:49:39;;;;;;;35.48;12.25;;;;;;;-5.04;82.99;100033.07;1779061;79;20995;-76
2020/12/10 04:52:08;;;;;;;32.10;12.43;;;;;;;-5.04;82.99;100032.25;1807724;79;21149;-74
2020/12/10 04:54:38;;;;;;;34.90;12.23;;;;;;;-5.03;83.15;100033.89;1779512;79;21545;-74
2020/12/10 04:57:08;;;;;;;34.90;13.03;;;;;;;-5.02;83.29;100032.36;1779025;79;21869;-74
2020/12/10 04:59:35;;;;;;;31.80;11.83;;;;;;;-5.01;83.34;100038.53;1807823;79;20936;-72
2020/12/10 05:02:06;;;;;;;34.55;13.72;;;;;;;-5.00;83.52;100042.34;1807917;79;20913;-73
2020/12/10 05:04:34;;;;;;;39.40;13.95;;;;;;;-4.98;83.72;100046.16;1779149;79;20940;-76
2020/12/10 05:07:01;;;;;;;43.23;14.68;;;;;;;-4.95;83.98;100059.66;1779047;79;21047;-72
2020/12/10 05:09:29;;;;;;;36.10;13.32;;;;;;;-4.92;84.69;100054.73;1778959;79;21805;-73
2020/12/10 05:11:57;;;;;;;39.78;13.48;;;;;;;-4.88;84.64;100046.59;1807882;79;20976;-75
2020/12/10 05:14:24;;;;;;;46.63;15.40;;;;;;;-4.83;84.76;100050.83;1808112;79;20920;-74
2020/12/10 05:17:14;;;;;;;43.35;14.73;;;;;;;-4.80;84.91;100041.05;1807884;79;21082;-73
2020/12/10 05:19:43;;;;;;;41.50;13.88;;;;;;;-4.75;85.83;100041.27;1807906;79;20948;-73
2020/12/10 05:22:11;;;;;;;36.90;13.35;;;;;;;-4.68;85.51;100056.83;1807892;79;21359;-73
2020/12/10 05:24:38;;;;;;;46.45;16.70;;;;;;;-4.67;85.39;100048.28;1807801;78;20975;-73
2020/12/10 05:27:20;;;;;;;47.53;15.63;;;;;;;-4.65;85.74;100042.20;1807871;79;20920;-73
2020/12/10 05:29:50;;;;;;;47.78;16.60;;;;;;;-4.63;85.39;100037.98;1808105;79;21545;-74
2020/12/10 05:32:40;;;;;;;42.75;15.85;;;;;;;-4.65;85.28;100039.52;1807887;78;21122;-73
2020/12/10 05:35:20;;;;;;;45.88;16.23;;;;;;;-4.67;85.47;100035.71;1807746;79;21797;-73
2020/12/10 05:37:50;;;;;;;47.83;15.30;;;;;;;-4.70;85.40;100029.42;1807937;79;21130;-72
2020/12/10 05:40:18;;;;;;;41.20;15.25;;;;;;;-4.69;85.59;100031.59;1807940;79;20960;-71
2020/12/10 05:42:50;;;;;;;40.78;15.58;;;;;;;-4.69;85.69;100036.43;1807824;79;21047;-74
2020/12/10 05:45:20;;;;;;;57.25;14.80;;;;;;;-4.68;85.68;100035.40;1808038;79;21471;-74
2020/12/10 05:47:52;;;;;;;38.60;14.05;;;;;;;-4.66;85.66;100032.52;1806909;79;22088;-74
2020/12/10 05:50:25;;;;;;;44.00;14.95;;;;;;;-4.66;85.88;100034.68;1807884;78;20992;-73
2020/12/10 05:53:11;;;;;;;32.53;12.58;;;;;;;-4.66;85.64;100025.30;1810422;79;20920;-73
2020/12/10 05:55:41;;;;;;;39.53;14.30;;;;;;;-4.66;85.56;100032.00;1813667;79;20892;-73
2020/12/10 05:58:08;;;;;;;37.35;14.00;;;;;;;-4.66;85.50;100029.84;1813954;79;21142;-74
2020/12/10 06:00:37;;;;;;;37.63;14.13;;;;;;;-4.67;85.66;100029.02;1815728;79;21190;-74
2020/12/10 06:03:05;;;;;;;36.88;14.63;;;;;;;-4.67;85.53;100022.83;1816314;79;20948;-77
2020/12/10 06:05:33;;;;;;;38.50;12.98;;;;;;;-4.70;85.61;100014.69;1817715;79;20880;-78
2020/12/10 06:08:09;;;;;;;38.48;14.23;;;;;;;-4.68;86.20;100008.61;1748933;80;21130;-78
2020/12/10 06:10:41;;;;;;;46.10;15.65;;;;;;;-4.66;85.88;100017.78;1782860;80;21183;-79
2020/12/10 06:13:11;;;;;;;38.78;16.23;;;;;;;-4.68;86.09;100019.33;1783198;80;21169;-77
2020/12/10 06:15:39;;;;;;;49.23;15.93;;;;;;;-4.67;86.28;100014.80;1781648;80;21124;-76
2020/12/10 06:18:13;;;;;;;48.02;15.98;;;;;;;-4.66;86.34;100013.25;1780668;80;21169;-78
2020/12/10 06:20:49;;;;;;;49.67;17.77;;;;;;;-4.64;86.34;100010.88;1781016;80;21169;-78
2020/12/10 06:23:33;;;;;;;43.35;16.20;;;;;;;-4.65;86.67;100014.08;1781112;80;21213;-77
2020/12/10 06:26:27;;;;;;;46.55;16.57;;;;;;;-4.67;86.60;100018.30;1781023;80;21199;-78
2020/12/10 06:29:20;;;;;;;48.63;17.48;;;;;;;-4.66;86.89;100024.48;1781413;80;21505;-77
2020/12/10 06:32:09;;;;;;;54.15;17.85;;;;;;;-4.64;87.37;100021.59;1781635;80;21003;-76
2020/12/10 06:34:51;;;;;;;53.28;16.07;;;;;;;-4.67;87.43;100019.64;1781063;80;21181;-76
2020/12/10 06:37:23;;;;;;;52.83;17.48;;;;;;;-4.69;87.58;100016.34;1780929;80;21209;-77
2020/12/10 06:39:55;;;;;;;55.80;16.37;;;;;;;-4.73;88.01;100020.45;1781032;80;22337;-77
2020/12/10 06:42:47;;;;;;;63.30;17.77;;;;;;;-4.72;88.18;100019.42;1889523;76;22583;-77
2020/12/10 06:45:39;;;;;;;54.65;18.45;;;;;;;-4.74;88.59;100017.47;1860732;77;20939;-78
2020/12/10 06:48:10;;;;;;;55.63;18.35;;;;;;;-4.67;89.24;100014.80;1861126;77;20991;-79
2020/12/10 06:50:40;;;;;;;52.73;16.52;;;;;;;-4.67;88.80;100011.59;1861281;77;21449;-79
2020/12/10 06:53:21;;;;;;;46.68;17.15;;;;;;;-4.67;88.95;100000.06;1861073;77;20932;-79
2020/12/10 06:56:08;;;;;;;44.45;14.73;;;;;;;-4.66;88.84;99994.50;1860202;77;20931;-79
2020/12/10 06:58:39;;;;;;;55.12;16.37;;;;;;;-4.62;88.75;99988.18;1860266;77;20979;-79
2020/12/10 07:01:29;;;;;;;55.70;16.52;;;;;;;-4.62;88.71;100000.78;1861154;77;22235;-79
2020/12/10 07:07:19;;;;;;;45.98;15.45;;;;;;;-4.62;88.59;100002.91;1861063;77;20990;-75
2020/12/10 07:09:51;;;;;;;;;;;;;;;-4.60;89.06;99998.17;1863928;77;21518;-76
2020/12/10 07:12:28;;;;;;;53.78;15.25;;;;;;;-4.58;88.89;99989.42;1861415;77;20145;-75
2020/12/10 07:15:15;;;;;;;49.45;16.62;;;;;;;-4.57;88.78;99987.56;1861044;77;21802;-77
2020/12/10 07:17:49;;;;;;;60.25;16.02;;;;;;;-4.57;89.25;99983.03;1860989;77;21014;-76
2020/12/10 07:20:18;;;;;;;44.27;16.65;;;;;;;-4.55;89.15;99986.33;1861006;77;20920;-76
2020/12/10 07:22:46;;;;;;;52.38;17.05;;;;;;;-4.52;89.08;99991.78;1860975;77;21529;-77
2020/12/10 07:25:13;;;;;;;46.70;14.35;;;;;;;-4.49;89.79;99981.48;1861037;77;20968;-77
2020/12/10 07:27:43;;;;;;;51.30;16.17;;;;;;;-4.45;89.60;99971.17;1861003;77;21053;-77
2020/12/10 07:30:12;;;;;;;48.68;17.00;;;;;;;-4.46;89.55;99981.06;1851626;77;20949;-77
2020/12/10 07:32:40;;;;;;;57.45;17.60;;;;;;;-4.44;90.04;99983.53;1845185;77;20879;-78
2020/12/10 07:35:08;;;;;;;50.50;15.20;;;;;;;-4.39;90.14;99983.22;1847236;77;20939;-78
2020/12/10 07:37:37;;;;;;;45.67;15.98;;;;;;;-4.36;90.10;99980.64;1847339;77;21069;-78
2020/12/10 07:40:16;;;;;;;49.58;16.50;;;;;;;-4.36;90.21;99981.98;1847245;77;21192;-78
2020/12/10 07:42:44;;;;;;;48.10;13.45;;;;;;;-4.35;90.51;99980.44;1850325;77;21010;-78
2020/12/10 07:45:20;;;;;;;49.93;13.28;;;;;;;-4.34;90.99;99982.08;1850503;77;20917;-79
2020/12/10 07:47:57;;;;;;;43.58;15.35;;;;;;;-4.34;91.83;99975.90;1850443;77;20919;-78
2020/12/10 07:50:25;;;;;;;47.50;15.20;;;;;;;-4.32;92.49;99995.28;1850564;77;20974;-81
2020/12/10 07:52:55;;;;;;;43.48;16.25;;;;;;;-4.31;92.88;99996.92;1851928;77;22270;-77
2020/12/10 07:55:27;;;;;;;53.90;15.85;;;;;;;-4.29;93.30;100004.25;1849951;77;21563;-77
2020/12/10 07:58:45;;;;;;;43.98;15.03;;;;;;;-4.27;93.55;100000.84;1849209;77;21038;-77
2020/12/10 08:01:12;;;;;;;45.08;15.85;;;;;;;-4.26;93.48;99996.30;1849727;77;20922;-77
2020/12/10 08:03:54;;;;;;;41.55;15.80;;;;;;;-4.24;93.64;99992.38;1824287;77;21457;-79
2020/12/10 08:06:22;;;;;;;;;;;;;;;-4.22;93.32;99986.30;1851568;77;21389;-76
2020/12/10 08:08:57;;;;;;;43.58;14.63;;;;;;;-4.21;93.17;99979.90;1823818;77;20115;-82
2020/12/10 08:11:20;;;;;;;57.17;16.27;;;;;;;-4.20;93.19;99982.89;1849759;77;21489;-82
2020/12/10 08:14:01;;;;;;;46.60;14.68;;;;;;;-4.19;92.85;99983.20;1849857;77;21045;-79
2020/12/10 08:16:41;;;;;;;37.40;13.35;;;;;;;-4.18;92.70;99978.14;1849993;77;20883;-79
2020/12/10 08:19:23;;;;;;;38.23;14.13;;;;;;;-4.16;92.84;99979.27;1849853;77;21136;-77
2020/12/10 08:21:51;;;;;;;48.13;15.45;;;;;;;-4.15;92.72;99977.72;1849943;77;20938;-82
2020/12/10 08:24:47;;;;;;;38.60;14.55;;;;;;;-4.15;92.35;99982.27;1849952;77;21450;-79
2020/12/10 08:27:17;;;;;;;40.85;12.68;;;;;;;-4.16;92.40;99977.41;1849835;77;20974;-73
2020/12/10 08:30:07;;;;;;;41.85;14.75;;;;;;;-4.14;92.37;99974.52;1849775;77;21148;-76
2020/12/10 08:32:36;;;;;;;40.85;12.98;;;;;;;-4.11;92.25;99974.93;1849839;77;21402;-74
2020/12/10 08:35:07;;;;;;;42.78;13.68;;;;;;;-4.07;92.46;99980.70;1849812;77;20993;-71
2020/12/10 08:37:38;;;;;;;34.20;12.53;;;;;;;-4.03;92.25;99985.92;1849931;77;21531;-80
2020/12/10 08:40:06;;;;;;;38.28;14.05;;;;;;;-4.02;92.07;99979.00;1849816;77;20974;-78
2020/12/10 08:42:33;;;;;;;38.65;15.23;;;;;;;-4.00;91.85;99975.59;1850022;77;20937;-75
2020/12/10 08:45:02;;;;;;;42.03;14.30;;;;;;;-4.00;91.56;99968.89;1849850;77;22395;-79
2020/12/10 08:47:32;;;;;;;38.65;13.98;;;;;;;-3.96;91.71;99971.15;1849501;77;20954;-78
2020/12/10 08:53:09;;;;;;;38.80;14.15;;;;;;;-3.87;91.36;99940.37;1766335;81;21602;-76
2020/12/10 08:55:41;;;;;;;42.98;15.13;;;;;;;-3.85;91.04;99941.81;1771730;81;21036;-75
2020/12/10 08:58:23;;;;;;;47.85;16.00;;;;;;;-3.82;91.16;99935.20;1771799;81;22586;-78
2020/12/10 09:00:54;;;;;;;51.15;14.43;;;;;;;-3.81;90.78;99926.94;1771483;81;20965;-78
2020/12/10 09:03:23;;;;;;;47.50;16.30;;;;;;;-3.80;90.74;99924.56;1771666;81;21495;-73
2020/12/10 09:05:52;;;;;;;34.15;12.65;;;;;;;-3.78;90.94;99922.49;1771580;81;20894;-76
2020/12/10 09:08:19;;;;;;;46.92;16.00;;;;;;;-3.77;90.63;99912.06;1771713;81;20949;-73
2020/12/10 09:10:47;;;;;;;49.30;15.98;;;;;;;-3.77;90.60;99924.66;1771766;81;21332;-77
2020/12/10 09:13:14;;;;;;;47.98;15.45;;;;;;;-3.75;90.62;99932.80;1766060;81;21591;-77
2020/12/10 09:15:44;;;;;;;40.10;15.05;;;;;;;-3.74;90.73;99926.39;1735744;82;21000;-75
2020/12/10 09:18:12;;;;;;;46.08;15.85;;;;;;;-3.70;90.79;99933.50;1731758;82;21111;-74
2020/12/10 09:20:41;;;;;;;57.15;19.37;;;;;;;-3.68;90.74;99940.30;1732614;82;21562;-82
2020/12/10 09:23:11;;;;;;;60.43;16.65;;;;;;;-3.65;90.69;99939.05;1732657;82;21538;-78
2020/12/10 09:25:39;;;;;;;55.95;18.80;;;;;;;-3.64;90.60;99938.02;1737649;82;20987;-76
2020/12/10 09:28:09;;;;;;;42.35;15.65;;;;;;;-3.66;90.52;99940.09;1737903;82;21035;-77
2020/12/10 09:30:40;;;;;;;58.02;18.00;;;;;;;-3.71;90.69;99939.91;1737986;81;21494;-74
2020/12/10 09:33:08;;;;;;;;;;;;;;;-3.77;90.95;99926.00;1740664;82;21116;-71
2020/12/10 09:35:36;;;;;;;53.23;16.95;;;;;;;-3.80;91.34;99934.47;1738007;82;22300;-78
2020/12/10 09:38:05;;;;;;;63.83;18.27;;;;;;;-3.82;91.56;99937.88;1737819;82;20963;-77
2020/12/10 09:40:32;;;;;;;64.00;21.55;;;;;;;-3.83;91.57;99942.42;1746640;81;20952;-85
2020/12/10 09:43:00;;;;;;;61.73;18.23;;;;;;;-3.84;91.71;99938.61;1757431;81;21143;-72
2020/12/10 09:45:27;;;;;;;64.80;20.17;;;;;;;-3.84;91.73;99935.93;1758343;81;21061;-76
2020/12/10 09:47:56;;;;;;;62.10;21.20;;;;;;;-3.86;91.67;99932.64;1758362;81;21829;-76
2020/12/10 09:50:26;;;;;;;56.65;19.98;;;;;;;-3.88;91.77;99927.48;1758561;81;21505;-73
2020/12/10 09:58:11;;;;;;;66.95;21.80;;;;;;;-3.87;91.60;99914.90;1856191;77;20872;-82
2020/12/10 10:00:39;;;;;;;53.00;19.70;;;;;;;-3.86;91.88;99918.70;1861047;77;21807;-79
2020/12/10 10:03:07;;;;;;;62.93;19.23;;;;;;;-3.85;91.49;99918.19;1860928;77;21129;-74
2020/12/10 10:05:36;;;;;;;72.20;21.85;;;;;;;-3.83;91.54;99914.26;1857083;77;21011;-76
2020/12/10 10:08:04;;;;;;;76.85;23.87;;;;;;;-3.82;91.46;99913.22;1861113;77;21019;-79
2020/12/10 10:10:31;;;;;;;72.45;22.20;;;;;;;-3.81;91.17;99906.00;1861081;77;20895;-79
2020/12/10 10:12:59;;;;;;;69.22;22.60;;;;;;;-3.83;90.82;99902.70;1861086;77;21143;-78
2020/12/10 10:15:27;;;;;;;57.35;21.65;;;;;;;-3.84;91.15;99905.08;1860982;77;21130;-78
2020/12/10 10:17:54;;;;;;;58.40;19.92;;;;;;;-3.87;90.75;99901.48;1860994;77;20963;-78
2020/12/10 10:20:22;;;;;;;67.40;21.33;;;;;;;-3.92;90.17;99898.09;1861035;77;20916;-78
2020/12/10 10:22:50;;;;;;;62.67;21.80;;;;;;;-3.97;90.35;99897.91;1860942;77;21030;-79
2020/12/10 10:25:17;;;;;;;52.90;18.98;;;;;;;-3.99;90.30;99895.45;1860793;77;22242;-79
2020/12/10 10:27:46;;;;;;;55.95;20.92;;;;;;;-3.97;90.34;99899.77;1850461;76;21568;-79
2020/12/10 10:30:13;;;;;;;69.70;21.45;;;;;;;-3.96;89.92;99883.47;1838777;77;20915;-79
2020/12/10 10:32:40;;;;;;;61.80;21.05;;;;;;;-3.94;89.97;99891.30;1842154;77;21456;-79
2020/12/10 10:35:08;;;;;;;67.10;20.75;;;;;;;-3.92;89.83;99902.13;1864321;77;21032;-80
2020/12/10 10:37:35;;;;;;;57.90;19.62;;;;;;;-3.88;89.55;99907.89;1864346;77;21031;-79
2020/12/10 10:40:03;;;;;;;66.85;22.48;;;;;;;-3.90;89.08;99901.91;1864304;77;20925;-79
2020/12/10 10:42:33;;;;;;;69.07;23.30;;;;;;;-3.91;88.72;99896.23;1864453;77;21445;-79
2020/12/10 10:45:01;;;;;;;61.18;21.30;;;;;;;-3.93;88.42;99903.16;1864387;77;21064;-77
2020/12/10 10:47:29;;;;;;;60.43;21.35;;;;;;;-3.96;88.08;99902.24;1857668;77;20903;-80
2020/12/10 10:49:57;;;;;;;68.02;21.42;;;;;;;-3.97;88.24;99901.94;1839989;78;22254;-78
2020/12/10 10:52:25;;;;;;;74.12;23.60;;;;;;;-3.97;87.87;99899.77;1757691;80;21160;-80
2020/12/10 10:54:53;;;;;;;72.12;23.60;;;;;;;-3.99;88.22;99887.40;1781093;80;20936;-80
2020/12/10 10:57:20;;;;;;;79.62;25.27;;;;;;;-4.00;87.71;99892.45;1792332;79;21573;-79
2020/12/10 10:59:47;;;;;;;83.20;26.45;;;;;;;-4.02;87.44;99898.55;1775089;80;21013;-80
2020/12/10 11:02:15;;;;;;;74.72;25.12;;;;;;;-4.04;87.38;99894.44;1775068;80;22472;-79
2020/12/10 11:04:42;;;;;;;70.90;21.85;;;;;;;-4.06;87.36;99889.31;1775006;80;20954;-80
2020/12/10 11:07:10;;;;;;;82.42;25.52;;;;;;;-4.09;87.18;99887.05;1774519;80;21085;-82
2020/12/10 11:09:37;;;;;;;74.12;25.12;;;;;;;-4.07;87.84;99895.71;1774513;79;21111;-81
2020/12/10 11:12:06;;;;;;;88.78;25.17;;;;;;;-4.05;87.40;99902.20;1771548;81;21024;-81
2020/12/10 11:14:35;;;;;;;71.72;26.10;;;;;;;-4.06;87.15;99889.31;1677553;81;21547;-82
2020/12/10 11:17:03;;;;;;;72.62;25.30;;;;;;;-4.09;87.35;99870.97;1678174;85;21099;-80
2020/12/10 11:19:30;;;;;;;78.33;26.37;;;;;;;-4.09;87.14;99873.65;1676214;84;21079;-80
2020/12/10 11:21:57;;;;;;;71.10;21.93;;;;;;;-4.11;86.95;99870.87;1674895;85;21005;-82
2020/12/10 11:24:25;;;;;;;70.32;22.07;;;;;;;-4.12;87.65;99860.67;1652077;85;21152;-82
2020/12/10 11:26:52;;;;;;;64.47;23.80;;;;;;;-4.11;87.75;99858.81;1674786;85;22675;-82
2020/12/10 11:29:20;;;;;;;61.50;20.85;;;;;;;-4.13;87.67;99859.02;1674678;85;20974;-82
2020/12/10 11:31:47;;;;;;;63.02;22.80;;;;;;;-4.15;88.03;99851.70;1678311;83;21575;-83
2020/12/10 11:34:16;;;;;;;62.95;21.57;;;;;;;-4.11;88.76;99855.61;1727769;83;21148;-82
2020/12/10 11:36:46;;;;;;;66.28;21.25;;;;;;;-4.10;89.32;99858.59;1727866;83;20990;-82
2020/12/10 11:39:13;;;;;;;59.60;23.95;;;;;;;-4.08;90.04;99849.00;1727886;83;21370;-82